sensor_id;sensor_type;location;lat;lon;timestamp;pressure;altitude;pressure_sealevel;temperature;humidity
13604;BME280;24578;48.264;11.436;2023-05-22T00:01:44;95719.38;;;14.16;100.00
13604;BME280;24578;48.264;11.436;2023-05-22T00:05:11;95719.94;;;14.10;100.00
13604;BME280;24578;48.264;11.436;2023-05-22T00:08:34;95710.66;;;14.07;100.00
13604;BME280;24578;48.264;11.436;2023-05-22T00:11:55;95720.53;;;14.04;100.00
13604;BME280;24578;48.264;11.436;2023-05-22T00:15:17;95711.53;;;13.98;100.00
13604;BME280;24578;48.264;11.436;2023-05-22T00:18:39;95723.34;;;13.92;100.00
13604;BME280;24578;48.264;11.436;2023-05-22T00:22:04;95725.53;;;13.87;100.00
13604;BME280;24578;48.264;11.436;2023-05-22T00:25:26;95715.84;;;13.79;100.00
13604;BME280;24578;48.264;11.436;2023-05-22T00:28:47;95717.78;;;13.77;100.00
13604;BME280;24578;48.264;11.436;2023-05-22T00:32:09;95716.28;;;13.75;100.00
13604;BME280;24578;48.264;11.436;2023-05-22T00:35:31;95717.00;;;13.67;100.00
13604;BME280;24578;48.264;11.436;2023-05-22T00:38:53;95711.56;;;13.60;100.00
13604;BME280;24578;48.264;11.436;2023-05-22T00:42:16;95719.91;;;13.54;100.00
13604;BME280;24578;48.264;11.436;2023-05-22T00:45:37;95715.69;;;13.43;100.00
13604;BME280;24578;48.264;11.436;2023-05-22T00:48:59;95715.69;;;13.33;100.00
13604;BME280;24578;48.264;11.436;2023-05-22T00:52:21;95722.69;;;13.23;100.00
13604;BME280;24578;48.264;11.436;2023-05-22T00:55:44;95716.72;;;13.13;100.00
13604;BME280;24578;48.264;11.436;2023-05-22T00:59:06;95727.66;;;13.06;100.00
13604;BME280;24578;48.264;11.436;2023-05-22T01:02:30;95724.38;;;12.94;100.00
13604;BME280;24578;48.264;11.436;2023-05-22T01:05:54;95727.66;;;12.87;100.00
13604;BME280;24578;48.264;11.436;2023-05-22T01:09:16;95727.53;;;12.78;100.00
13604;BME280;24578;48.264;11.436;2023-05-22T01:20:15;95733.13;;;12.54;100.00
13604;BME280;24578;48.264;11.436;2023-05-22T01:24:18;95727.13;;;12.44;100.00
13604;BME280;24578;48.264;11.436;2023-05-22T01:31:25;95737.88;;;12.29;100.00
13604;BME280;24578;48.264;11.436;2023-05-22T01:34:52;95726.38;;;12.22;100.00
13604;BME280;24578;48.264;11.436;2023-05-22T01:38:15;95723.50;;;12.15;100.00
13604;BME280;24578;48.264;11.436;2023-05-22T01:41:39;95735.78;;;12.13;100.00
13604;BME280;24578;48.264;11.436;2023-05-22T01:45:01;95736.88;;;12.11;100.00
13604;BME280;24578;48.264;11.436;2023-05-22T01:48:23;95741.63;;;12.06;100.00
13604;BME280;24578;48.264;11.436;2023-05-22T01:55:17;95739.81;;;11.96;100.00
13604;BME280;24578;48.264;11.436;2023-05-22T01:59:03;95733.38;;;11.91;100.00
13604;BME280;24578;48.264;11.436;2023-05-22T02:02:32;95740.72;;;11.85;100.00
13604;BME280;24578;48.264;11.436;2023-05-22T02:05:59;95744.66;;;11.80;100.00
13604;BME280;24578;48.264;11.436;2023-05-22T02:09:27;95747.50;;;11.77;100.00
13604;BME280;24578;48.264;11.436;2023-05-22T02:12:50;95752.16;;;11.73;100.00
13604;BME280;24578;48.264;11.436;2023-05-22T02:16:12;95750.75;;;11.69;100.00
13604;BME280;24578;48.264;11.436;2023-05-22T02:19:34;95757.13;;;11.65;100.00
13604;BME280;24578;48.264;11.436;2023-05-22T02:22:56;95751.53;;;11.60;100.00
13604;BME280;24578;48.264;11.436;2023-05-22T02:26:18;95751.09;;;11.54;100.00
13604;BME280;24578;48.264;11.436;2023-05-22T02:29:40;95753.94;;;11.51;100.00
13604;BME280;24578;48.264;11.436;2023-05-22T02:33:01;95755.41;;;11.44;100.00
13604;BME280;24578;48.264;11.436;2023-05-22T02:36:25;95751.44;;;11.40;100.00
13604;BME280;24578;48.264;11.436;2023-05-22T02:39:47;95750.03;;;11.36;100.00
13604;BME280;24578;48.264;11.436;2023-05-22T02:43:09;95745.09;;;11.33;100.00
13604;BME280;24578;48.264;11.436;2023-05-22T02:46:31;95756.94;;;11.25;100.00
13604;BME280;24578;48.264;11.436;2023-05-22T02:49:53;95754.59;;;11.22;100.00
13604;BME280;24578;48.264;11.436;2023-05-22T02:53:15;95754.84;;;11.19;100.00
13604;BME280;24578;48.264;11.436;2023-05-22T02:56:37;95754.53;;;11.12;100.00
13604;BME280;24578;48.264;11.436;2023-05-22T02:59:59;95750.53;;;11.08;100.00
13604;BME280;24578;48.264;11.436;2023-05-22T03:03:21;95756.09;;;11.04;100.00
13604;BME280;24578;48.264;11.436;2023-05-22T03:06:44;95751.31;;;10.99;100.00
13604;BME280;24578;48.264;11.436;2023-05-22T03:10:06;95742.13;;;10.95;100.00
13604;BME280;24578;48.264;11.436;2023-05-22T03:13:28;95739.78;;;10.92;100.00
13604;BME280;24578;48.264;11.436;2023-05-22T03:16:50;95747.94;;;10.87;100.00
13604;BME280;24578;48.264;11.436;2023-05-22T03:20:12;95754.06;;;10.86;100.00
13604;BME280;24578;48.264;11.436;2023-05-22T03:23:37;95754.19;;;10.85;100.00
13604;BME280;24578;48.264;11.436;2023-05-22T03:26:59;95761.25;;;10.82;100.00
13604;BME280;24578;48.264;11.436;2023-05-22T03:30:21;95763.03;;;10.82;100.00
13604;BME280;24578;48.264;11.436;2023-05-22T03:33:43;95764.22;;;10.78;100.00
13604;BME280;24578;48.264;11.436;2023-05-22T03:37:04;95766.81;;;10.78;100.00
13604;BME280;24578;48.264;11.436;2023-05-22T03:40:26;95764.94;;;10.80;100.00
13604;BME280;24578;48.264;11.436;2023-05-22T03:43:48;95772.56;;;10.81;100.00
13604;BME280;24578;48.264;11.436;2023-05-22T03:47:10;95765.63;;;10.82;100.00
13604;BME280;24578;48.264;11.436;2023-05-22T03:50:31;95767.00;;;10.86;100.00
13604;BME280;24578;48.264;11.436;2023-05-22T03:53:53;95768.56;;;10.89;100.00
13604;BME280;24578;48.264;11.436;2023-05-22T03:57:15;95768.97;;;10.94;100.00
13604;BME280;24578;48.264;11.436;2023-05-22T04:00:37;95777.91;;;11.01;100.00
13604;BME280;24578;48.264;11.436;2023-05-22T04:03:58;95770.91;;;11.13;100.00
13604;BME280;24578;48.264;11.436;2023-05-22T04:07:20;95764.47;;;11.29;100.00
13604;BME280;24578;48.264;11.436;2023-05-22T04:10:42;95772.59;;;11.45;100.00
13604;BME280;24578;48.264;11.436;2023-05-22T04:14:07;95771.69;;;11.87;100.00
13604;BME280;24578;48.264;11.436;2023-05-22T04:17:34;95764.66;;;12.40;100.00
13604;BME280;24578;48.264;11.436;2023-05-22T04:20:55;95762.09;;;12.89;100.00
13604;BME280;24578;48.264;11.436;2023-05-22T04:24:17;95769.63;;;13.31;100.00
13604;BME280;24578;48.264;11.436;2023-05-22T04:27:39;95772.00;;;13.72;100.00
13604;BME280;24578;48.264;11.436;2023-05-22T04:31:01;95774.94;;;13.97;100.00
13604;BME280;24578;48.264;11.436;2023-05-22T04:34:26;95777.88;;;14.40;100.00
13604;BME280;24578;48.264;11.436;2023-05-22T04:37:49;95783.75;;;14.88;100.00
13604;BME280;24578;48.264;11.436;2023-05-22T04:41:10;95786.00;;;15.45;100.00
13604;BME280;24578;48.264;11.436;2023-05-22T04:44:33;95780.06;;;16.14;100.00
13604;BME280;24578;48.264;11.436;2023-05-22T04:47:55;95783.03;;;16.79;100.00
13604;BME280;24578;48.264;11.436;2023-05-22T04:51:17;95775.56;;;17.50;100.00
13604;BME280;24578;48.264;11.436;2023-05-22T04:54:39;95778.09;;;17.91;100.00
13604;BME280;24578;48.264;11.436;2023-05-22T04:58:01;95775.47;;;18.39;100.00
13604;BME280;24578;48.264;11.436;2023-05-22T05:01:23;95777.28;;;18.94;100.00
13604;BME280;24578;48.264;11.436;2023-05-22T05:04:45;95780.31;;;19.37;100.00
13604;BME280;24578;48.264;11.436;2023-05-22T05:08:07;95779.94;;;19.93;100.00
13604;BME280;24578;48.264;11.436;2023-05-22T05:11:29;95771.94;;;20.47;100.00
13604;BME280;24578;48.264;11.436;2023-05-22T05:14:51;95771.06;;;20.76;100.00
13604;BME280;24578;48.264;11.436;2023-05-22T05:18:12;95782.28;;;21.28;100.00
13604;BME280;24578;48.264;11.436;2023-05-22T05:21:34;95763.91;;;21.85;100.00
13604;BME280;24578;48.264;11.436;2023-05-22T05:24:56;95769.97;;;22.63;96.34
13604;BME280;24578;48.264;11.436;2023-05-22T05:28:18;95777.56;;;23.06;91.40
13604;BME280;24578;48.264;11.436;2023-05-22T05:31:40;95767.66;;;23.29;88.86
13604;BME280;24578;48.264;11.436;2023-05-22T05:35:02;95763.19;;;23.63;81.97
13604;BME280;24578;48.264;11.436;2023-05-22T05:38:24;95762.72;;;24.06;75.38
13604;BME280;24578;48.264;11.436;2023-05-22T05:41:46;95764.31;;;24.73;68.85
13604;BME280;24578;48.264;11.436;2023-05-22T05:45:08;95766.19;;;24.59;66.75
13604;BME280;24578;48.264;11.436;2023-05-22T05:48:30;95763.34;;;24.99;63.31
13604;BME280;24578;48.264;11.436;2023-05-22T05:51:52;95774.16;;;25.55;60.44
13604;BME280;24578;48.264;11.436;2023-05-22T05:55:14;95767.50;;;25.71;59.15
13604;BME280;24578;48.264;11.436;2023-05-22T05:58:36;95768.16;;;26.29;56.44
13604;BME280;24578;48.264;11.436;2023-05-22T06:01:58;95775.59;;;27.30;52.06
13604;BME280;24578;48.264;11.436;2023-05-22T06:05:20;95783.06;;;27.10;50.74
13604;BME280;24578;48.264;11.436;2023-05-22T06:08:42;95784.34;;;27.19;50.04
13604;BME280;24578;48.264;11.436;2023-05-22T06:12:04;95789.38;;;27.39;49.44
13604;BME280;24578;48.264;11.436;2023-05-22T06:15:27;95783.88;;;27.88;46.91
13604;BME280;24578;48.264;11.436;2023-05-22T06:18:49;95784.75;;;28.41;45.07
13604;BME280;24578;48.264;11.436;2023-05-22T06:22:13;95789.47;;;28.51;45.18
13604;BME280;24578;48.264;11.436;2023-05-22T06:25:34;95781.69;;;29.20;42.69
13604;BME280;24578;48.264;11.436;2023-05-22T06:28:56;95780.63;;;29.21;41.23
13604;BME280;24578;48.264;11.436;2023-05-22T06:32:18;95780.78;;;29.14;41.40
13604;BME280;24578;48.264;11.436;2023-05-22T06:35:40;95777.69;;;29.34;40.88
13604;BME280;24578;48.264;11.436;2023-05-22T06:39:02;95775.53;;;29.65;39.88
13604;BME280;24578;48.264;11.436;2023-05-22T06:42:24;95773.44;;;30.06;38.74
13604;BME280;24578;48.264;11.436;2023-05-22T06:45:46;95779.78;;;30.22;38.47
13604;BME280;24578;48.264;11.436;2023-05-22T06:49:07;95766.31;;;30.34;37.32
13604;BME280;24578;48.264;11.436;2023-05-22T06:52:29;95772.50;;;30.57;37.99
13604;BME280;24578;48.264;11.436;2023-05-22T06:55:52;95772.56;;;30.90;36.86
13604;BME280;24578;48.264;11.436;2023-05-22T06:59:14;95775.75;;;31.14;36.72
13604;BME280;24578;48.264;11.436;2023-05-22T07:02:35;95778.44;;;30.64;37.73
13604;BME280;24578;48.264;11.436;2023-05-22T07:05:57;95775.56;;;30.71;36.21
13604;BME280;24578;48.264;11.436;2023-05-22T07:09:19;95775.94;;;31.35;36.99
13604;BME280;24578;48.264;11.436;2023-05-22T07:12:41;95781.53;;;31.66;36.24
13604;BME280;24578;48.264;11.436;2023-05-22T07:16:03;95771.09;;;32.07;34.45
13604;BME280;24578;48.264;11.436;2023-05-22T07:19:25;95780.97;;;31.64;35.71
13604;BME280;24578;48.264;11.436;2023-05-22T07:22:46;95779.81;;;31.54;36.07
13604;BME280;24578;48.264;11.436;2023-05-22T07:26:08;95780.44;;;31.62;34.71
13604;BME280;24578;48.264;11.436;2023-05-22T07:29:31;95781.41;;;31.83;34.30
13604;BME280;24578;48.264;11.436;2023-05-22T07:32:53;95780.75;;;31.33;35.45
13604;BME280;24578;48.264;11.436;2023-05-22T07:36:14;95791.50;;;32.18;33.17
13604;BME280;24578;48.264;11.436;2023-05-22T07:39:37;95787.69;;;32.04;33.26
13604;BME280;24578;48.264;11.436;2023-05-22T07:42:59;95781.97;;;32.38;33.65
13604;BME280;24578;48.264;11.436;2023-05-22T07:46:21;95782.63;;;32.08;34.68
13604;BME280;24578;48.264;11.436;2023-05-22T07:49:43;95788.41;;;31.94;33.87
13604;BME280;24578;48.264;11.436;2023-05-22T07:53:04;95787.63;;;32.37;32.35
13604;BME280;24578;48.264;11.436;2023-05-22T07:56:26;95784.81;;;32.16;34.92
13604;BME280;24578;48.264;11.436;2023-05-22T07:59:48;95784.06;;;32.26;34.51
13604;BME280;24578;48.264;11.436;2023-05-22T08:03:11;95782.72;;;33.02;33.22
13604;BME280;24578;48.264;11.436;2023-05-22T08:06:33;95774.19;;;33.67;32.02
13604;BME280;24578;48.264;11.436;2023-05-22T08:09:55;95783.59;;;33.44;32.52
13604;BME280;24578;48.264;11.436;2023-05-22T08:13:17;95776.31;;;33.91;29.98
13604;BME280;24578;48.264;11.436;2023-05-22T08:16:39;95775.00;;;33.58;31.78
13604;BME280;24578;48.264;11.436;2023-05-22T08:20:01;95774.19;;;33.93;31.86
13604;BME280;24578;48.264;11.436;2023-05-22T08:23:23;95779.00;;;33.76;32.61
13604;BME280;24578;48.264;11.436;2023-05-22T08:26:45;95774.53;;;34.57;31.21
13604;BME280;24578;48.264;11.436;2023-05-22T08:30:07;95773.28;;;34.95;30.13
13604;BME280;24578;48.264;11.436;2023-05-22T08:33:29;95780.75;;;34.98;30.21
13604;BME280;24578;48.264;11.436;2023-05-22T08:36:51;95776.19;;;35.73;28.27
13604;BME280;24578;48.264;11.436;2023-05-22T08:40:13;95775.88;;;35.74;28.35
13604;BME280;24578;48.264;11.436;2023-05-22T08:43:35;95776.72;;;36.04;28.18
13604;BME280;24578;48.264;11.436;2023-05-22T08:47:00;95773.91;;;35.85;28.72
13604;BME280;24578;48.264;11.436;2023-05-22T08:50:23;95776.84;;;35.25;29.55
13604;BME280;24578;48.264;11.436;2023-05-22T08:53:47;95774.47;;;34.68;30.43
13604;BME280;24578;48.264;11.436;2023-05-22T08:57:12;95767.34;;;34.92;30.15
13604;BME280;24578;48.264;11.436;2023-05-22T09:00:34;95763.06;;;34.91;29.29
13604;BME280;24578;48.264;11.436;2023-05-22T09:04:00;95765.97;;;35.00;28.59
13604;BME280;24578;48.264;11.436;2023-05-22T09:07:22;95767.28;;;35.08;29.71
13604;BME280;24578;48.264;11.436;2023-05-22T09:10:44;95766.00;;;34.90;30.16
13604;BME280;24578;48.264;11.436;2023-05-22T09:14:07;95771.78;;;34.68;30.63
13604;BME280;24578;48.264;11.436;2023-05-22T09:17:29;95770.53;;;35.00;30.00
13604;BME280;24578;48.264;11.436;2023-05-22T09:20:51;95763.22;;;35.45;29.72
13604;BME280;24578;48.264;11.436;2023-05-22T09:24:12;95754.84;;;35.52;29.58
13604;BME280;24578;48.264;11.436;2023-05-22T09:27:34;95767.91;;;35.29;28.83
13604;BME280;24578;48.264;11.436;2023-05-22T09:30:57;95756.25;;;35.04;28.40
13604;BME280;24578;48.264;11.436;2023-05-22T09:34:19;95770.44;;;35.15;30.05
13604;BME280;24578;48.264;11.436;2023-05-22T09:37:40;95774.50;;;36.06;29.37
13604;BME280;24578;48.264;11.436;2023-05-22T09:41:02;95770.81;;;36.02;29.29
13604;BME280;24578;48.264;11.436;2023-05-22T09:44:24;95770.84;;;35.97;30.35
13604;BME280;24578;48.264;11.436;2023-05-22T09:47:48;95774.97;;;35.84;28.50
13604;BME280;24578;48.264;11.436;2023-05-22T09:51:12;95770.75;;;35.48;30.41
13604;BME280;24578;48.264;11.436;2023-05-22T09:54:49;95774.63;;;35.96;28.89
13604;BME280;24578;48.264;11.436;2023-05-22T09:58:23;95771.13;;;35.66;28.76
13604;BME280;24578;48.264;11.436;2023-05-22T10:01:48;95767.59;;;35.71;28.80
13604;BME280;24578;48.264;11.436;2023-05-22T10:05:11;95765.19;;;35.69;29.09
13604;BME280;24578;48.264;11.436;2023-05-22T10:08:41;95768.78;;;36.13;29.16
13604;BME280;24578;48.264;11.436;2023-05-22T10:12:05;95772.03;;;35.56;31.18
13604;BME280;24578;48.264;11.436;2023-05-22T10:15:29;95767.22;;;35.82;28.84
13604;BME280;24578;48.264;11.436;2023-05-22T10:18:52;95761.88;;;35.77;28.87
13604;BME280;24578;48.264;11.436;2023-05-22T10:22:14;95769.47;;;36.00;30.30
13604;BME280;24578;48.264;11.436;2023-05-22T10:25:42;95764.03;;;35.75;29.12
13604;BME280;24578;48.264;11.436;2023-05-22T10:29:10;95763.19;;;35.50;27.45
13604;BME280;24578;48.264;11.436;2023-05-22T10:33:28;95756.72;;;35.51;29.22
13604;BME280;24578;48.264;11.436;2023-05-22T10:40:12;95750.34;;;36.69;28.25
13604;BME280;24578;48.264;11.436;2023-05-22T10:43:41;95750.44;;;37.02;27.09
13604;BME280;24578;48.264;11.436;2023-05-22T10:47:08;95744.94;;;37.26;27.81
13604;BME280;24578;48.264;11.436;2023-05-22T10:50:33;95747.06;;;36.28;27.99
13604;BME280;24578;48.264;11.436;2023-05-22T10:53:59;95749.34;;;35.92;28.42
13604;BME280;24578;48.264;11.436;2023-05-22T10:57:23;95763.19;;;35.16;30.57
13604;BME280;24578;48.264;11.436;2023-05-22T11:00:45;95745.97;;;34.72;30.80
13604;BME280;24578;48.264;11.436;2023-05-22T11:07:39;95737.31;;;36.57;27.28
13604;BME280;24578;48.264;11.436;2023-05-22T11:11:10;95743.44;;;36.38;28.52
13604;BME280;24578;48.264;11.436;2023-05-22T11:14:35;95741.06;;;35.83;29.37
13604;BME280;24578;48.264;11.436;2023-05-22T11:18:02;95739.56;;;36.25;29.19
13604;BME280;24578;48.264;11.436;2023-05-22T11:21:28;95736.41;;;36.18;28.31
13604;BME280;24578;48.264;11.436;2023-05-22T11:24:49;95743.69;;;35.93;29.38
13604;BME280;24578;48.264;11.436;2023-05-22T11:28:12;95743.50;;;35.85;28.76
13604;BME280;24578;48.264;11.436;2023-05-22T11:31:35;95740.16;;;36.41;28.65
13604;BME280;24578;48.264;11.436;2023-05-22T11:35:00;95734.47;;;36.67;28.80
13604;BME280;24578;48.264;11.436;2023-05-22T11:38:22;95736.38;;;36.67;28.36
13604;BME280;24578;48.264;11.436;2023-05-22T11:41:46;95736.78;;;36.55;28.77
13604;BME280;24578;48.264;11.436;2023-05-22T11:45:08;95732.34;;;36.45;27.33
13604;BME280;24578;48.264;11.436;2023-05-22T11:48:30;95735.81;;;36.02;28.97
13604;BME280;24578;48.264;11.436;2023-05-22T11:51:52;95721.25;;;36.03;28.82
13604;BME280;24578;48.264;11.436;2023-05-22T11:55:14;95723.34;;;35.58;30.05
13604;BME280;24578;48.264;11.436;2023-05-22T11:58:36;95724.22;;;34.08;31.42
13604;BME280;24578;48.264;11.436;2023-05-22T12:01:57;95731.78;;;33.85;32.65
13604;BME280;24578;48.264;11.436;2023-05-22T12:05:20;95727.00;;;33.40;33.77
13604;BME280;24578;48.264;11.436;2023-05-22T12:08:42;95719.44;;;33.84;32.39
13604;BME280;24578;48.264;11.436;2023-05-22T12:12:04;95716.75;;;33.84;31.26
13604;BME280;24578;48.264;11.436;2023-05-22T12:15:26;95720.81;;;33.35;33.09
13604;BME280;24578;48.264;11.436;2023-05-22T12:18:51;95722.72;;;33.45;32.47
13604;BME280;24578;48.264;11.436;2023-05-22T12:22:14;95719.50;;;33.43;32.79
13604;BME280;24578;48.264;11.436;2023-05-22T12:25:36;95721.63;;;33.04;33.63
13604;BME280;24578;48.264;11.436;2023-05-22T12:28:58;95714.69;;;33.39;32.23
13604;BME280;24578;48.264;11.436;2023-05-22T12:32:20;95714.66;;;33.45;31.26
13604;BME280;24578;48.264;11.436;2023-05-22T12:35:42;95713.59;;;33.46;31.97
13604;BME280;24578;48.264;11.436;2023-05-22T12:39:08;95708.69;;;33.94;30.46
13604;BME280;24578;48.264;11.436;2023-05-22T12:42:30;95706.09;;;34.44;29.42
13604;BME280;24578;48.264;11.436;2023-05-22T12:45:52;95706.63;;;34.86;28.22
13604;BME280;24578;48.264;11.436;2023-05-22T12:49:14;95698.78;;;34.50;29.91
13604;BME280;24578;48.264;11.436;2023-05-22T12:52:36;95701.97;;;33.97;29.70
13604;BME280;24578;48.264;11.436;2023-05-22T12:55:57;95696.34;;;33.93;29.55
13604;BME280;24578;48.264;11.436;2023-05-22T12:59:19;95691.06;;;33.52;30.04
13604;BME280;24578;48.264;11.436;2023-05-22T13:02:41;95691.69;;;34.14;29.59
13604;BME280;24578;48.264;11.436;2023-05-22T13:06:03;95691.34;;;34.82;28.93
13604;BME280;24578;48.264;11.436;2023-05-22T13:09:25;95672.34;;;35.42;27.45
13604;BME280;24578;48.264;11.436;2023-05-22T13:12:46;95669.19;;;35.89;26.17
13604;BME280;24578;48.264;11.436;2023-05-22T13:16:11;95675.53;;;35.98;26.52
13604;BME280;24578;48.264;11.436;2023-05-22T13:19:33;95667.97;;;35.51;27.47
13604;BME280;24578;48.264;11.436;2023-05-22T13:22:55;95672.09;;;35.92;25.62
13604;BME280;24578;48.264;11.436;2023-05-22T13:26:16;95673.03;;;36.07;25.12
13604;BME280;24578;48.264;11.436;2023-05-22T13:29:38;95673.97;;;35.92;25.62
13604;BME280;24578;48.264;11.436;2023-05-22T13:33:00;95668.22;;;36.04;25.40
13604;BME280;24578;48.264;11.436;2023-05-22T13:36:22;95657.56;;;36.56;24.36
13604;BME280;24578;48.264;11.436;2023-05-22T13:39:43;95658.38;;;36.56;24.57
13604;BME280;24578;48.264;11.436;2023-05-22T13:43:06;95658.22;;;36.48;24.91
13604;BME280;24578;48.264;11.436;2023-05-22T13:46:28;95654.84;;;36.75;24.39
13604;BME280;24578;48.264;11.436;2023-05-22T13:49:50;95641.75;;;36.68;24.55
13604;BME280;24578;48.264;11.436;2023-05-22T13:53:11;95643.94;;;36.28;25.07
13604;BME280;24578;48.264;11.436;2023-05-22T13:56:34;95640.94;;;35.62;26.01
13604;BME280;24578;48.264;11.436;2023-05-22T13:59:56;95649.31;;;35.01;27.65
13604;BME280;24578;48.264;11.436;2023-05-22T14:03:18;95648.16;;;35.08;26.40
13604;BME280;24578;48.264;11.436;2023-05-22T14:06:39;95643.22;;;34.51;26.13
13604;BME280;24578;48.264;11.436;2023-05-22T14:10:01;95640.28;;;34.47;28.16
13604;BME280;24578;48.264;11.436;2023-05-22T14:13:23;95637.91;;;34.35;27.40
13604;BME280;24578;48.264;11.436;2023-05-22T14:16:45;95634.66;;;34.38;27.92
13604;BME280;24578;48.264;11.436;2023-05-22T14:20:07;95638.47;;;33.56;28.04
13604;BME280;24578;48.264;11.436;2023-05-22T14:23:29;95635.19;;;32.19;29.97
13604;BME280;24578;48.264;11.436;2023-05-22T14:26:50;95628.00;;;31.62;31.87
13604;BME280;24578;48.264;11.436;2023-05-22T14:30:13;95631.41;;;31.09;33.39
13604;BME280;24578;48.264;11.436;2023-05-22T14:33:35;95623.78;;;30.58;33.49
13604;BME280;24578;48.264;11.436;2023-05-22T14:36:57;95625.28;;;30.21;31.88
13604;BME280;24578;48.264;11.436;2023-05-22T14:40:19;95632.47;;;29.76;32.36
13604;BME280;24578;48.264;11.436;2023-05-22T14:43:41;95634.41;;;29.41;33.65
13604;BME280;24578;48.264;11.436;2023-05-22T14:47:02;95636.53;;;29.22;33.10
13604;BME280;24578;48.264;11.436;2023-05-22T14:50:24;95641.47;;;29.13;35.22
13604;BME280;24578;48.264;11.436;2023-05-22T14:53:46;95643.47;;;29.06;34.22
13604;BME280;24578;48.264;11.436;2023-05-22T14:57:08;95640.72;;;28.84;32.68
13604;BME280;24578;48.264;11.436;2023-05-22T15:00:30;95652.28;;;28.61;32.14
13604;BME280;24578;48.264;11.436;2023-05-22T15:03:52;95653.44;;;28.65;31.53
13604;BME280;24578;48.264;11.436;2023-05-22T15:07:15;95654.25;;;28.36;31.53
13604;BME280;24578;48.264;11.436;2023-05-22T15:10:37;95653.47;;;28.36;32.08
13604;BME280;24578;48.264;11.436;2023-05-22T15:14:01;95642.16;;;28.29;31.64
13604;BME280;24578;48.264;11.436;2023-05-22T15:17:25;95641.47;;;28.33;33.10
13604;BME280;24578;48.264;11.436;2023-05-22T15:20:47;95655.84;;;28.20;34.22
13604;BME280;24578;48.264;11.436;2023-05-22T15:24:09;95645.19;;;28.20;34.69
13604;BME280;24578;48.264;11.436;2023-05-22T15:27:32;95647.19;;;28.13;35.24
13604;BME280;24578;48.264;11.436;2023-05-22T15:30:55;95647.53;;;28.05;35.85
13604;BME280;24578;48.264;11.436;2023-05-22T15:34:17;95650.53;;;28.08;36.54
13604;BME280;24578;48.264;11.436;2023-05-22T15:37:38;95642.78;;;28.07;35.32
13604;BME280;24578;48.264;11.436;2023-05-22T15:41:00;95651.41;;;27.85;36.07
13604;BME280;24578;48.264;11.436;2023-05-22T15:44:22;95653.72;;;27.81;36.05
13604;BME280;24578;48.264;11.436;2023-05-22T15:47:43;95650.25;;;27.81;36.79
13604;BME280;24578;48.264;11.436;2023-05-22T15:51:05;95646.22;;;27.78;36.65
13604;BME280;24578;48.264;11.436;2023-05-22T15:54:29;95651.66;;;27.72;36.31
13604;BME280;24578;48.264;11.436;2023-05-22T15:57:51;95644.06;;;27.63;35.63
13604;BME280;24578;48.264;11.436;2023-05-22T16:01:13;95641.41;;;27.63;35.13
13604;BME280;24578;48.264;11.436;2023-05-22T16:04:35;95640.13;;;27.66;35.06
13604;BME280;24578;48.264;11.436;2023-05-22T16:07:56;95637.34;;;27.49;35.22
13604;BME280;24578;48.264;11.436;2023-05-22T16:11:18;95631.09;;;27.43;33.70
13604;BME280;24578;48.264;11.436;2023-05-22T16:14:40;95632.75;;;27.32;32.76
13604;BME280;24578;48.264;11.436;2023-05-22T16:18:03;95627.75;;;27.24;33.96
13604;BME280;24578;48.264;11.436;2023-05-22T16:21:24;95635.28;;;27.27;32.19
13604;BME280;24578;48.264;11.436;2023-05-22T16:24:46;95632.84;;;27.26;33.24
13604;BME280;24578;48.264;11.436;2023-05-22T16:28:08;95630.09;;;27.20;33.75
13604;BME280;24578;48.264;11.436;2023-05-22T16:31:31;95629.75;;;27.17;34.05
13604;BME280;24578;48.264;11.436;2023-05-22T16:34:55;95633.19;;;27.05;35.76
13604;BME280;24578;48.264;11.436;2023-05-22T16:38:17;95636.41;;;27.08;36.02
13604;BME280;24578;48.264;11.436;2023-05-22T16:41:39;95633.91;;;27.13;36.74
13604;BME280;24578;48.264;11.436;2023-05-22T16:45:01;95624.75;;;27.09;36.27
13604;BME280;24578;48.264;11.436;2023-05-22T16:48:23;95629.59;;;27.00;36.75
13604;BME280;24578;48.264;11.436;2023-05-22T16:51:45;95625.31;;;26.87;38.68
13604;BME280;24578;48.264;11.436;2023-05-22T16:55:07;95633.72;;;26.41;40.25
13604;BME280;24578;48.264;11.436;2023-05-22T16:58:29;95621.56;;;26.03;40.66
13604;BME280;24578;48.264;11.436;2023-05-22T17:01:52;95628.53;;;25.86;41.68
13604;BME280;24578;48.264;11.436;2023-05-22T17:05:14;95627.94;;;25.83;41.52
13604;BME280;24578;48.264;11.436;2023-05-22T17:08:36;95625.28;;;25.83;40.89
13604;BME280;24578;48.264;11.436;2023-05-22T17:11:58;95632.13;;;25.73;42.88
13604;BME280;24578;48.264;11.436;2023-05-22T17:15:19;95625.34;;;25.58;42.28
13604;BME280;24578;48.264;11.436;2023-05-22T17:18:41;95628.06;;;25.51;42.41
13604;BME280;24578;48.264;11.436;2023-05-22T17:22:03;95629.22;;;25.37;43.68
13604;BME280;24578;48.264;11.436;2023-05-22T17:25:25;95630.59;;;25.39;43.38
13604;BME280;24578;48.264;11.436;2023-05-22T17:28:46;95641.00;;;25.41;42.33
13604;BME280;24578;48.264;11.436;2023-05-22T17:32:08;95640.00;;;25.17;43.22
13604;BME280;24578;48.264;11.436;2023-05-22T17:35:30;95636.66;;;25.03;43.92
13604;BME280;24578;48.264;11.436;2023-05-22T17:38:52;95642.56;;;25.05;44.49
13604;BME280;24578;48.264;11.436;2023-05-22T17:42:13;95647.88;;;25.23;44.47
13604;BME280;24578;48.264;11.436;2023-05-22T17:45:35;95644.47;;;24.98;44.93
13604;BME280;24578;48.264;11.436;2023-05-22T17:48:57;95645.25;;;24.73;45.85
13604;BME280;24578;48.264;11.436;2023-05-22T17:52:19;95645.53;;;24.58;46.48
13604;BME280;24578;48.264;11.436;2023-05-22T17:55:40;95648.19;;;24.58;46.38
13604;BME280;24578;48.264;11.436;2023-05-22T17:59:02;95648.84;;;24.46;46.58